Time;durP1;ratioP1;P1;durP2;ratioP2;P2;SDS_P1;SDS_P2;PMS_P1;PMS_P2;Temp;Humidity;BMP_temperature;BMP_pressure;BME280_temperature;BME280_humidity;BME280_pressure;Samples;Min_cycle;Max_cycle;Signal;HPM_P1;HPM_P2
2022/12/04 00:00:28;;;;;;;58.33;29.53;;;;;;;1.93;97.40;99621.56;2280221;78;21294;-82
2022/12/04 00:03:31;;;;;;;53.87;27.87;;;;;;;1.91;97.39;99622.36;2279946;78;20938;-83
2022/12/04 00:06:35;;;;;;;53.60;29.50;;;;;;;1.90;97.26;99621.88;2280117;78;20902;-84
2022/12/04 00:09:32;;;;;;;51.73;27.67;;;;;;;1.87;97.35;99619.13;2279710;78;20907;-83
2022/12/04 00:12:33;;;;;;;51.20;27.93;;;;;;;1.90;97.37;99620.59;2280235;78;20926;-82
2022/12/04 00:15:33;;;;;;;54.10;27.40;;;;;;;1.90;97.31;99614.55;2280063;78;21299;-82
2022/12/04 00:18:33;;;;;;;48.73;27.90;;;;;;;1.87;97.18;99612.69;2280263;78;20949;-82
2022/12/04 00:21:34;;;;;;;52.23;27.97;;;;;;;1.90;97.28;99620.98;2280206;78;20922;-82
2022/12/04 00:24:34;;;;;;;45.80;25.37;;;;;;;1.88;97.13;99625.16;2280144;78;20946;-83
2022/12/04 00:27:35;;;;;;;48.00;26.27;;;;;;;1.86;97.12;99625.47;2280085;78;20914;-83
2022/12/04 00:30:35;;;;;;;48.13;25.47;;;;;;;1.85;97.07;99637.85;2279724;78;20939;-82
2022/12/04 00:33:35;;;;;;;46.33;25.70;;;;;;;1.84;97.12;99638.66;2280333;78;20902;-83
2022/12/04 00:36:36;;;;;;;43.50;24.50;;;;;;;1.82;97.39;99635.09;2280610;78;21055;-83
2022/12/04 00:39:36;;;;;;;47.20;25.90;;;;;;;1.88;97.32;99638.03;2280239;78;20882;-85
2022/12/04 00:42:37;;;;;;;47.97;25.73;;;;;;;1.92;97.04;99637.41;2280216;78;20946;-83
2022/12/04 00:45:37;;;;;;;48.23;26.63;;;;;;;1.91;96.87;99638.21;2280325;78;20947;-83
2022/12/04 00:48:37;;;;;;;47.80;26.67;;;;;;;1.95;96.74;99639.28;2280588;78;20910;-84
2022/12/04 00:51:38;;;;;;;56.23;28.50;;;;;;;1.96;96.70;99629.47;2280714;78;20946;-83
2022/12/04 00:54:38;;;;;;;47.27;24.77;;;;;;;1.96;96.93;99620.45;2280689;78;20951;-83
2022/12/04 00:57:39;;;;;;;44.00;24.17;;;;;;;1.90;96.63;99618.02;2280168;78;20895;-84
2022/12/04 01:00:39;;;;;;;49.67;26.73;;;;;;;1.86;96.73;99617.75;2280578;78;20898;-83
2022/12/04 01:03:39;;;;;;;41.90;24.50;;;;;;;1.85;96.95;99619.44;2280098;78;20938;-84
2022/12/04 01:06:40;;;;;;;48.07;26.20;;;;;;;1.88;96.81;99627.73;2280339;78;20942;-84
2022/12/04 01:09:40;;;;;;;44.30;25.10;;;;;;;1.88;96.98;99626.45;2280407;78;20926;-84
2022/12/04 01:12:41;;;;;;;48.97;25.67;;;;;;;1.88;96.79;99618.72;2280731;78;20966;-83
2022/12/04 01:15:42;;;;;;;46.47;25.33;;;;;;;1.88;96.68;99620.89;2280257;78;20929;-84
2022/12/04 01:18:41;;;;;;;44.87;25.57;;;;;;;1.85;96.81;99612.11;2280304;78;20895;-83
2022/12/04 01:21:42;;;;;;;46.67;25.57;;;;;;;1.78;96.68;99605.72;2280361;78;20934;-83
2022/12/04 01:24:42;;;;;;;43.90;25.00;;;;;;;1.77;96.78;99603.94;2280440;78;20895;-83
2022/12/04 01:27:43;;;;;;;41.17;24.37;;;;;;;1.84;96.85;99606.47;2280248;78;20907;-84
2022/12/04 01:30:43;;;;;;;47.63;25.87;;;;;;;1.85;96.74;99606.95;2280053;78;20938;-84
2022/12/04 01:33:43;;;;;;;45.43;24.83;;;;;;;1.86;96.83;99611.31;2280014;78;20905;-83
2022/12/04 01:36:44;;;;;;;42.83;23.07;;;;;;;1.85;96.79;99603.98;2280657;78;20926;-83
2022/12/04 01:39:44;;;;;;;43.53;25.13;;;;;;;1.80;96.83;99599.38;2280332;78;20903;-83
2022/12/04 01:42:45;;;;;;;43.20;24.53;;;;;;;1.81;96.83;99596.88;2280199;78;20997;-83
2022/12/04 01:45:46;;;;;;;42.93;23.23;;;;;;;1.85;96.75;99605.27;2280478;78;20891;-84
2022/12/04 01:48:46;;;;;;;43.77;24.80;;;;;;;1.89;96.71;99596.04;2280290;78;20931;-83
2022/12/04 01:51:46;;;;;;;41.63;23.20;;;;;;;1.89;96.71;99596.04;2280319;78;20933;-83
2022/12/04 01:54:46;;;;;;;42.53;24.13;;;;;;;1.87;96.63;99588.23;2280605;78;20875;-83
2022/12/04 01:57:47;;;;;;;45.00;24.83;;;;;;;1.90;96.64;99592.27;2280401;78;20962;-83
2022/12/04 02:00:47;;;;;;;43.27;25.13;;;;;;;1.93;96.67;99591.95;2280281;78;21288;-82
2022/12/04 02:03:48;;;;;;;45.53;25.10;;;;;;;1.91;96.61;99588.89;2280247;78;20973;-82
2022/12/04 02:06:48;;;;;;;41.90;24.40;;;;;;;1.90;96.39;99590.09;2280138;78;20915;-82
2022/12/04 02:09:54;;;;;;;50.43;25.03;;;;;;;1.90;96.52;99586.23;2280103;78;20907;-82
2022/12/04 02:12:49;;;;;;;47.17;23.60;;;;;;;1.89;96.57;99582.77;2280028;78;20938;-82
2022/12/04 02:15:49;;;;;;;40.40;23.63;;;;;;;1.93;96.48;99586.80;2279939;78;20954;-83
2022/12/04 02:18:50;;;;;;;43.03;23.67;;;;;;;1.90;96.39;99592.67;2280226;78;20867;-82
2022/12/04 02:21:50;;;;;;;43.67;23.83;;;;;;;1.89;96.46;99589.20;2279911;78;21282;-81
2022/12/04 02:24:50;;;;;;;39.30;22.67;;;;;;;1.87;96.55;99580.50;2279892;78;20939;-82
2022/12/04 02:27:51;;;;;;;41.70;23.83;;;;;;;1.90;96.54;99575.93;2280084;78;20911;-84
2022/12/04 02:30:51;;;;;;;44.47;22.03;;;;;;;1.89;96.62;99575.05;2280211;78;20946;-83
2022/12/04 02:33:52;;;;;;;38.23;22.27;;;;;;;1.86;96.67;99565.86;2279983;78;20932;-83
2022/12/04 02:36:52;;;;;;;39.57;21.93;;;;;;;1.81;96.90;99568.56;2280326;78;20899;-83
2022/12/04 02:39:52;;;;;;;39.50;23.17;;;;;;;1.75;97.01;99569.50;2280011;78;20942;-83
2022/12/04 02:42:53;;;;;;;37.37;21.90;;;;;;;1.74;97.16;99570.30;2280141;78;20966;-83
2022/12/04 02:45:53;;;;;;;39.57;22.93;;;;;;;1.73;97.15;99580.08;2280172;78;20891;-82
2022/12/04 02:48:54;;;;;;;39.30;21.63;;;;;;;1.76;97.18;99583.27;2280283;78;20907;-82
2022/12/04 02:51:54;;;;;;;40.60;22.40;;;;;;;1.80;97.13;99578.78;2280270;78;20918;-82
2022/12/04 02:54:54;;;;;;;45.20;23.83;;;;;;;1.76;97.26;99575.53;2280225;78;21283;-82
2022/12/04 02:57:55;;;;;;;45.03;24.13;;;;;;;1.76;97.35;99577.71;2279787;78;20915;-83
2022/12/04 03:00:55;;;;;;;44.17;24.40;;;;;;;1.75;97.49;99572.08;2280274;78;20926;-83
2022/12/04 03:03:56;;;;;;;41.13;23.17;;;;;;;1.74;97.50;99580.59;2280508;78;20977;-83
2022/12/04 03:06:56;;;;;;;41.77;23.03;;;;;;;1.72;97.53;99578.30;2280261;78;20946;-82
2022/12/04 03:09:57;;;;;;;38.83;21.97;;;;;;;1.74;97.65;99579.31;2280265;78;21251;-83
2022/12/04 03:12:57;;;;;;;39.87;22.53;;;;;;;1.77;97.69;99580.77;2279985;78;20954;-83
2022/12/04 03:15:57;;;;;;;39.83;21.43;;;;;;;1.79;97.59;99583.44;2280479;78;20934;-83
2022/12/04 03:18:58;;;;;;;40.90;21.70;;;;;;;1.81;97.39;99596.00;2280528;78;20915;-84
2022/12/04 03:21:58;;;;;;;41.93;23.20;;;;;;;1.85;97.40;99586.36;2280439;78;20930;-84
2022/12/04 03:24:59;;;;;;;38.67;22.07;;;;;;;1.86;97.31;99588.14;2280387;78;20903;-87
2022/12/04 03:27:59;;;;;;;41.57;22.73;;;;;;;1.87;97.17;99580.50;2280570;78;20915;-85
2022/12/04 03:31:00;;;;;;;42.43;21.47;;;;;;;1.90;97.14;99588.80;2280948;78;20902;-84
2022/12/04 03:34:00;;;;;;;42.50;22.53;;;;;;;1.90;96.98;99595.23;2280607;78;20895;-84
2022/12/04 03:37:00;;;;;;;43.00;23.87;;;;;;;1.90;97.05;99596.13;2280891;78;20871;-85
2022/12/04 03:40:01;;;;;;;39.17;21.10;;;;;;;2.38;100.00;99597.53;2280554;78;20905;-86
2022/12/04 03:43:01;;;;;;;38.00;21.87;;;;;;;6.96;100.00;99579.23;2280292;78;20982;-84
2022/12/04 03:46:02;;;;;;;33.93;21.40;;;;;;;6.09;91.72;99575.30;2280384;78;20922;-85
2022/12/04 03:49:03;;;;;;;40.13;21.77;;;;;;;4.64;89.52;99575.28;2280870;78;20899;-85
2022/12/04 03:52:03;;;;;;;38.63;21.40;;;;;;;3.88;89.62;99576.33;2280731;78;20910;-85
2022/12/04 03:55:04;;;;;;;39.30;21.00;;;;;;;3.39;91.12;99581.96;2279712;78;20919;-83
2022/12/04 03:58:04;;;;;;;37.20;20.53;;;;;;;2.84;92.76;99581.23;2279972;78;20871;-83
2022/12/04 04:01:04;;;;;;;36.07;21.57;;;;;;;2.84;92.76;99581.23;2280096;78;20939;-83
2022/12/04 04:04:06;;;;;;;32.13;19.37;;;;;;;2.68;93.24;99577.75;2279652;78;20958;-83
2022/12/04 04:07:05;;;;;;;35.00;20.77;;;;;;;2.55;93.74;99577.05;2276036;78;20931;-82
2022/12/04 04:10:06;;;;;;;36.00;20.37;;;;;;;2.44;94.23;99575.97;2276363;78;20911;-83
2022/12/04 04:26:21;;;;;;;33.33;18.90;;;;;;;2.13;95.97;99579.81;2276042;78;20907;-82
2022/12/04 04:29:21;;;;;;;37.67;20.97;;;;;;;2.07;96.20;99583.33;2276061;78;20899;-82
2022/12/04 04:32:21;;;;;;;35.77;19.17;;;;;;;2.00;96.26;99576.05;2276113;78;21322;-82
2022/12/04 04:35:22;;;;;;;32.77;17.93;;;;;;;1.99;96.42;99578.14;2276107;78;20911;-83
2022/12/04 04:38:22;;;;;;;34.73;18.93;;;;;;;1.96;97.06;99575.39;2276153;78;20863;-82
2022/12/04 04:41:23;;;;;;;33.77;17.97;;;;;;;1.95;96.98;99591.24;2275950;78;21346;-84
2022/12/04 04:44:23;;;;;;;32.33;18.87;;;;;;;1.89;97.25;99598.22;2227875;78;20950;-83
2022/12/04 04:47:23;;;;;;;32.93;19.23;;;;;;;1.87;97.25;99602.78;2214195;78;21330;-83
2022/12/04 04:50:24;;;;;;;35.70;20.10;;;;;;;1.82;97.46;99603.81;2275628;78;20906;-83
2022/12/04 04:53:25;;;;;;;34.47;19.33;;;;;;;1.82;97.61;99599.06;2276015;78;20871;-82
2022/12/04 04:56:25;;;;;;;35.20;18.93;;;;;;;1.82;97.78;99597.77;2275569;78;21306;-82
2022/12/04 04:59:25;;;;;;;39.57;20.83;;;;;;;1.81;97.81;99589.56;2276059;78;20875;-83
2022/12/04 05:02:25;;;;;;;34.67;19.33;;;;;;;1.82;97.89;99596.09;2276086;78;20991;-84
2022/12/04 05:05:26;;;;;;;36.43;21.20;;;;;;;1.83;97.75;99597.86;2277249;78;20993;-83
2022/12/04 05:08:26;;;;;;;33.93;18.03;;;;;;;1.84;97.75;99595.77;2279759;78;20899;-83
2022/12/04 05:11:27;;;;;;;33.47;19.50;;;;;;;1.90;97.95;99587.52;2279832;78;20917;-83
2022/12/04 05:14:27;;;;;;;34.40;19.47;;;;;;;1.85;97.55;99591.52;2279800;78;21002;-83
2022/12/04 05:17:28;;;;;;;34.70;18.83;;;;;;;1.86;97.64;99591.60;2280164;78;20911;-85
2022/12/04 05:20:28;;;;;;;32.07;18.27;;;;;;;1.88;97.60;99591.30;2279780;78;20879;-83
2022/12/04 05:23:29;;;;;;;33.03;18.77;;;;;;;1.87;97.53;99586.05;2280076;78;20925;-83
2022/12/04 05:26:29;;;;;;;32.03;18.73;;;;;;;5.10;100.00;99571.39;2279694;78;20891;-83
2022/12/04 05:29:29;;;;;;;28.30;17.27;;;;;;;8.76;100.00;99559.89;2279885;78;20938;-82
2022/12/04 05:32:30;;;;;;;26.83;17.47;;;;;;;11.24;100.00;99547.16;2279736;78;20915;-82
2022/12/04 05:35:30;;;;;;;29.20;17.73;;;;;;;12.80;85.40;99548.20;2279989;78;20910;-82
2022/12/04 05:38:30;;;;;;;23.57;16.67;;;;;;;12.07;66.76;99546.59;2279727;78;20903;-83
2022/12/04 05:41:31;;;;;;;24.20;17.03;;;;;;;8.90;67.74;99560.77;2279560;78;20970;-83
2022/12/04 05:44:31;;;;;;;26.27;17.13;;;;;;;6.83;70.51;99569.18;2279414;78;20944;-85
2022/12/04 05:47:32;;;;;;;26.33;16.87;;;;;;;5.35;74.10;99576.40;2279890;78;20922;-83
2022/12/04 05:50:32;;;;;;;24.67;16.20;;;;;;;4.47;77.31;99567.63;2279761;78;20890;-83
2022/12/04 05:53:33;;;;;;;26.23;17.47;;;;;;;3.87;79.72;99569.39;2279719;78;21314;-80
2022/12/04 05:56:33;;;;;;;29.30;19.30;;;;;;;3.42;81.80;99573.09;2279860;78;20951;-80
2022/12/04 05:59:33;;;;;;;27.10;18.00;;;;;;;3.09;83.65;99574.80;2279687;78;20911;-82
2022/12/04 06:02:34;;;;;;;28.83;18.77;;;;;;;2.84;84.82;99577.37;2279786;78;20954;-81
2022/12/04 06:05:34;;;;;;;27.77;17.13;;;;;;;2.62;86.30;99582.56;2279378;77;20938;-81
2022/12/04 06:08:35;;;;;;;30.47;17.73;;;;;;;2.41;88.24;99576.69;2279665;78;20954;-81
2022/12/04 06:11:35;;;;;;;33.50;18.13;;;;;;;2.27;88.81;99581.48;2279545;78;20911;-83
2022/12/04 06:14:35;;;;;;;28.33;17.43;;;;;;;2.13;90.06;99576.84;2279649;78;21002;-85
2022/12/04 06:17:36;;;;;;;33.63;18.57;;;;;;;2.08;90.15;99582.53;2279802;78;20907;-83
2022/12/04 06:20:36;;;;;;;27.50;17.33;;;;;;;2.02;90.88;99582.18;2279588;78;20914;-85
2022/12/04 06:23:37;;;;;;;31.00;18.03;;;;;;;2.00;91.11;99584.67;2279556;78;20930;-83
2022/12/04 06:26:37;;;;;;;31.57;18.17;;;;;;;1.94;92.36;99574.42;2279964;78;20986;-83
2022/12/04 06:29:37;;;;;;;30.63;18.73;;;;;;;1.87;92.71;99574.07;2279899;78;20914;-83
2022/12/04 06:32:38;;;;;;;28.17;18.17;;;;;;;1.76;93.61;99577.71;2280087;78;20867;-83
2022/12/04 06:35:38;;;;;;;29.53;17.80;;;;;;;1.73;93.86;99582.65;2280092;78;20942;-83
2022/12/04 06:38:39;;;;;;;47.57;25.67;;;;;;;1.71;94.14;99578.21;2280189;78;21290;-82
2022/12/04 06:41:39;;;;;;;29.10;17.40;;;;;;;1.68;94.23;99585.35;2279981;78;20963;-82
2022/12/04 06:44:42;;;;;;;27.37;16.60;;;;;;;1.65;95.18;99583.89;2279414;78;20962;-82
2022/12/04 06:47:43;;;;;;;24.40;15.77;;;;;;;1.64;95.48;99596.27;2280524;78;20898;-83
2022/12/04 06:50:43;;;;;;;29.17;16.83;;;;;;;1.62;95.75;99588.86;2280621;78;20927;-83
2022/12/04 06:53:44;;;;;;;27.30;16.60;;;;;;;1.64;95.31;99592.41;2280800;78;20902;-80
2022/12/04 06:56:45;;;;;;;30.13;17.33;;;;;;;1.67;95.53;99588.73;2280827;78;21003;-80
2022/12/04 06:59:45;;;;;;;27.80;17.17;;;;;;;1.67;95.21;99596.84;2281145;78;21612;-80
2022/12/04 07:02:46;;;;;;;30.47;18.10;;;;;;;1.68;95.46;99599.51;2281176;78;20930;-80
2022/12/04 07:05:46;;;;;;;32.83;19.73;;;;;;;1.71;96.09;99603.55;2281140;78;20939;-80
2022/12/04 07:08:46;;;;;;;32.27;18.07;;;;;;;1.72;96.02;99600.17;2281267;78;20907;-82
2022/12/04 07:11:47;;;;;;;29.07;17.17;;;;;;;1.73;96.21;99595.52;2280707;78;20938;-82
2022/12/04 07:14:47;;;;;;;29.20;17.47;;;;;;;1.72;96.08;99597.60;2280280;78;20977;-82
2022/12/04 07:17:48;;;;;;;33.13;19.37;;;;;;;1.72;96.28;99600.17;2280572;78;20899;-82
2022/12/04 07:20:48;;;;;;;29.10;17.07;;;;;;;1.71;96.11;99599.69;2280768;78;21266;-81
2022/12/04 07:23:49;;;;;;;31.07;18.23;;;;;;;1.74;96.55;99596.44;2280855;78;20974;-81
2022/12/04 07:26:49;;;;;;;31.70;18.87;;;;;;;1.66;96.86;99602.79;2280803;78;20903;-83
2022/12/04 07:29:49;;;;;;;31.97;18.50;;;;;;;1.67;97.02;99601.59;2280548;78;20922;-83
2022/12/04 07:32:50;;;;;;;33.67;18.30;;;;;;;1.70;96.54;99605.63;2280769;78;20937;-80
2022/12/04 07:35:50;;;;;;;30.77;17.70;;;;;;;1.78;96.64;99601.86;2280896;78;20907;-80
2022/12/04 07:38:51;;;;;;;35.07;19.70;;;;;;;1.83;96.30;99607.27;2281150;78;20933;-81
2022/12/04 07:41:51;;;;;;;31.67;18.10;;;;;;;1.85;96.40;99605.27;2281000;78;20922;-81
2022/12/04 07:44:51;;;;;;;32.17;18.27;;;;;;;1.87;96.55;99602.39;2280808;78;21334;-80
2022/12/04 07:47:52;;;;;;;33.33;18.23;;;;;;;1.86;96.25;99600.61;2280853;78;21298;-82
2022/12/04 07:50:52;;;;;;;33.70;18.77;;;;;;;1.91;96.17;99605.63;2280325;78;20875;-84
2022/12/04 07:53:53;;;;;;;31.10;18.10;;;;;;;1.91;96.12;99590.58;2280204;78;20890;-84
2022/12/04 07:56:53;;;;;;;34.77;19.63;;;;;;;1.97;96.27;99592.62;2280554;78;20883;-83
2022/12/04 07:59:53;;;;;;;34.27;19.07;;;;;;;2.00;96.26;99597.55;2279919;78;21330;-81
2022/12/04 08:02:54;;;;;;;32.17;19.07;;;;;;;1.97;96.00;99590.05;2279858;78;20899;-84
2022/12/04 08:05:54;;;;;;;33.70;18.73;;;;;;;2.03;96.13;99595.14;2278802;78;20946;-85
2022/12/04 08:08:56;;;;;;;28.87;16.90;;;;;;;2.07;95.81;99588.08;2276259;78;20938;-85
2022/12/04 08:11:55;;;;;;;31.70;19.53;;;;;;;2.07;95.81;99588.08;2276210;78;21349;-84
2022/12/04 08:14:55;;;;;;;29.73;17.73;;;;;;;2.15;95.88;99600.11;2275841;78;21026;-84
2022/12/04 08:17:56;;;;;;;32.23;18.63;;;;;;;2.19;95.48;99600.36;2275965;78;20938;-84
2022/12/04 08:20:56;;;;;;;32.17;18.90;;;;;;;2.17;95.45;99607.52;2276028;78;20926;-81
2022/12/04 08:23:57;;;;;;;32.13;18.77;;;;;;;2.17;95.47;99603.66;2276030;78;20930;-81
2022/12/04 08:26:57;;;;;;;35.23;19.67;;;;;;;2.26;95.76;99604.57;2276353;78;21041;-82
2022/12/04 08:29:57;;;;;;;33.67;19.50;;;;;;;2.35;95.43;99611.53;2276439;78;20958;-85
2022/12/04 08:32:58;;;;;;;32.63;18.97;;;;;;;2.37;95.16;99606.06;2276708;78;20894;-83
2022/12/04 08:35:58;;;;;;;33.43;19.30;;;;;;;2.46;94.92;99607.87;2276677;78;21306;-83
2022/12/04 08:38:59;;;;;;;32.67;19.10;;;;;;;2.50;94.82;99600.39;2276777;78;20911;-83
2022/12/04 08:41:59;;;;;;;54.03;33.10;;;;;;;2.59;94.67;99610.72;2277034;78;20966;-81
2022/12/04 08:44:59;;;;;;;33.43;19.70;;;;;;;2.66;94.62;99613.75;2276895;78;20978;-84
2022/12/04 08:48:01;;;;;;;29.50;18.63;;;;;;;2.72;93.90;99611.91;2276979;78;20902;-85
2022/12/04 08:51:02;;;;;;;32.97;18.90;;;;;;;2.76;93.92;99608.70;2276982;78;20876;-83
2022/12/04 08:54:01;;;;;;;30.77;18.40;;;;;;;2.76;93.92;99608.70;2276652;78;21266;-83
2022/12/04 08:57:02;;;;;;;33.03;18.77;;;;;;;2.80;93.42;99601.22;2276809;78;20923;-83
2022/12/04 09:00:02;;;;;;;32.90;18.67;;;;;;;2.84;93.52;99604.84;2276767;78;20930;-83
2022/12/04 09:03:02;;;;;;;34.03;18.73;;;;;;;2.85;93.16;99603.64;2276277;78;20974;-83
2022/12/04 09:06:03;;;;;;;37.57;21.73;;;;;;;2.83;92.71;99610.80;2277477;78;20939;-83
2022/12/04 09:09:03;;;;;;;31.50;18.80;;;;;;;2.75;93.15;99606.92;2280509;78;20926;-85
2022/12/04 09:12:03;;;;;;;36.67;19.43;;;;;;;2.77;93.51;99612.65;2279983;78;20954;-84
2022/12/04 09:15:04;;;;;;;34.17;19.73;;;;;;;2.83;93.55;99601.78;2278788;78;20965;-83
2022/12/04 09:18:04;;;;;;;29.93;18.20;;;;;;;2.95;93.41;99606.31;2279550;78;20871;-83
2022/12/04 09:21:04;;;;;;;35.60;20.77;;;;;;;3.03;93.09;99603.73;2279891;78;20867;-82
2022/12/04 09:24:05;;;;;;;31.27;19.83;;;;;;;3.08;92.71;99595.84;2280097;78;20906;-82
2022/12/04 09:27:05;;;;;;;35.17;19.57;;;;;;;3.10;92.17;99588.19;2280238;78;20915;-83
2022/12/04 09:30:06;;;;;;;34.30;20.33;;;;;;;3.11;91.86;99587.38;2280143;78;21313;-83
2022/12/04 09:33:06;;;;;;;28.37;17.87;;;;;;;3.06;91.94;99592.70;2279493;78;20910;-83
2022/12/04 09:36:06;;;;;;;33.00;19.13;;;;;;;3.09;92.20;99598.91;2279651;78;20919;-83
2022/12/04 09:39:07;;;;;;;33.70;20.00;;;;;;;3.16;92.08;99603.58;2279334;78;20919;-82
2022/12/04 09:42:07;;;;;;;30.93;18.53;;;;;;;3.14;91.69;99597.86;2279412;78;20931;-83
2022/12/04 09:45:08;;;;;;;35.20;20.43;;;;;;;3.10;91.76;99600.67;2279922;78;21006;-83
2022/12/04 09:48:08;;;;;;;33.90;19.73;;;;;;;3.16;91.88;99596.25;2279643;78;20871;-83
2022/12/04 09:51:17;;;;;;;33.53;20.77;;;;;;;3.14;91.67;99591.41;2280233;78;20903;-83
2022/12/04 09:54:09;;;;;;;34.40;20.63;;;;;;;3.05;91.42;99594.39;2280279;78;21099;-83
2022/12/04 09:57:09;;;;;;;38.57;20.43;;;;;;;3.03;91.63;99592.13;2280243;78;20915;-83
2022/12/04 10:00:10;;;;;;;32.83;19.80;;;;;;;3.10;92.09;99580.44;2280027;78;20934;-85
2022/12/04 10:03:10;;;;;;;34.27;20.13;;;;;;;3.14;91.70;99579.39;2280403;78;20930;-83
2022/12/04 10:06:11;;;;;;;31.33;19.23;;;;;;;3.14;91.54;99574.23;2279654;78;20915;-83
2022/12/04 10:09:11;;;;;;;33.50;20.10;;;;;;;3.18;91.76;99578.75;2276683;78;20899;-83
2022/12/04 10:12:12;;;;;;;32.67;19.80;;;;;;;3.19;91.42;99563.76;2276772;78;20903;-83
2022/12/04 10:15:12;;;;;;;28.57;17.33;;;;;;;3.22;91.51;99563.43;2276291;78;20930;-83
2022/12/04 10:18:12;;;;;;;32.13;18.57;;;;;;;3.33;91.47;99563.58;2276593;78;21133;-83
2022/12/04 10:21:13;;;;;;;34.53;20.23;;;;;;;3.38;91.41;99556.56;2276638;78;20899;-85
2022/12/04 10:24:13;;;;;;;32.57;19.10;;;;;;;3.39;90.65;99560.91;2276677;78;20930;-85
2022/12/04 10:27:13;;;;;;;32.47;19.00;;;;;;;3.35;90.66;99556.80;2276763;78;20902;-85
2022/12/04 10:30:14;;;;;;;30.23;18.07;;;;;;;3.34;90.69;99560.20;2276824;78;20899;-84
2022/12/04 10:33:14;;;;;;;30.57;18.87;;;;;;;3.30;90.38;99560.44;2277072;78;20934;-85
2022/12/04 10:36:15;;;;;;;28.87;18.90;;;;;;;3.23;89.92;99557.06;2276626;78;20876;-82
2022/12/04 10:39:15;;;;;;;30.93;19.07;;;;;;;3.11;90.38;99546.98;2277187;78;20875;-84
2022/12/04 10:42:15;;;;;;;29.33;18.10;;;;;;;3.14;90.97;99544.57;2276765;78;20931;-84
2022/12/04 10:45:16;;;;;;;31.67;19.53;;;;;;;3.22;90.96;99554.00;2276385;78;21001;-84
2022/12/04 10:48:16;;;;;;;32.50;19.63;;;;;;;3.14;90.38;99548.84;2276554;78;20942;-82
2022/12/04 10:51:17;;;;;;;35.57;19.77;;;;;;;3.16;90.92;99546.83;2276755;78;20950;-83
2022/12/04 10:54:17;;;;;;;30.77;19.23;;;;;;;3.16;90.91;99536.51;2276849;78;20907;-83
2022/12/04 10:57:17;;;;;;;30.70;19.77;;;;;;;3.18;91.03;99541.75;2276846;78;21235;-83
2022/12/04 11:00:18;;;;;;;32.47;20.10;;;;;;;3.17;90.77;99528.36;2276923;78;20938;-83
2022/12/04 11:03:18;;;;;;;31.70;19.20;;;;;;;3.13;90.97;99529.02;2277059;78;20997;-83
2022/12/04 11:06:19;;;;;;;31.77;18.90;;;;;;;3.16;91.36;99522.72;2277077;78;20942;-84
2022/12/04 11:09:21;;;;;;;31.73;19.07;;;;;;;3.26;91.02;99508.60;2280064;78;20899;-83
2022/12/04 11:12:19;;;;;;;32.30;18.93;;;;;;;3.32;90.93;99514.07;2280484;78;20938;-83
2022/12/04 11:15:20;;;;;;;31.07;19.23;;;;;;;3.39;91.31;99508.01;2279957;78;20954;-83
2022/12/04 11:18:20;;;;;;;28.83;17.40;;;;;;;3.49;90.88;99506.81;2280747;78;20910;-83
2022/12/04 11:21:21;;;;;;;32.57;18.93;;;;;;;3.61;90.78;99498.38;2280511;78;21274;-82
2022/12/04 11:24:22;;;;;;;33.17;18.43;;;;;;;3.62;89.89;99492.41;2280515;78;20936;-81
2022/12/04 11:27:21;;;;;;;30.37;18.93;;;;;;;3.59;89.83;99501.30;2280213;78;20867;-84
2022/12/04 11:30:22;;;;;;;28.87;17.97;;;;;;;3.49;89.67;99499.06;2279765;78;20927;-84
2022/12/04 11:33:22;;;;;;;33.40;19.00;;;;;;;3.44;89.93;99499.20;2280401;78;20911;-83
2022/12/04 11:36:23;;;;;;;28.03;18.03;;;;;;;3.33;89.87;99502.94;2280437;78;21275;-83
2022/12/04 11:39:23;;;;;;;29.23;18.90;;;;;;;3.27;90.48;99505.21;2280386;78;20948;-83
2022/12/04 11:42:23;;;;;;;30.47;18.63;;;;;;;3.26;90.45;99514.65;2280349;78;20923;-82
2022/12/04 11:45:24;;;;;;;32.13;19.50;;;;;;;3.27;90.61;99514.24;2280139;78;20993;-83
2022/12/04 11:48:24;;;;;;;32.47;18.40;;;;;;;3.27;90.61;99523.27;2280255;78;20903;-83
2022/12/04 11:51:25;;;;;;;33.23;19.63;;;;;;;3.29;90.44;99519.08;2280269;78;20903;-83
2022/12/04 11:54:25;;;;;;;35.20;20.00;;;;;;;3.26;90.29;99514.65;2280345;78;20926;-83
2022/12/04 11:57:26;;;;;;;32.50;19.43;;;;;;;3.24;90.42;99514.97;2280233;78;20918;-83
2022/12/04 12:00:27;;;;;;;30.43;19.17;;;;;;;3.19;90.55;99513.45;2280326;78;20899;-83
2022/12/04 12:03:26;;;;;;;33.57;19.73;;;;;;;3.19;90.81;99519.90;2280380;78;20965;-83
2022/12/04 12:06:27;;;;;;;33.73;20.60;;;;;;;3.23;91.04;99514.89;2279896;78;20910;-82
2022/12/04 12:09:27;;;;;;;33.73;19.73;;;;;;;3.28;91.05;99518.19;2276737;78;20962;-84
2022/12/04 12:12:28;;;;;;;40.37;23.93;;;;;;;3.26;90.97;99521.09;2276323;78;20867;-82
2022/12/04 12:15:28;;;;;;;33.33;19.77;;;;;;;3.30;91.11;99514.40;2276133;78;20985;-83
2022/12/04 12:18:28;;;;;;;36.43;19.97;;;;;;;3.34;91.10;99506.00;2276355;78;21348;-84
2022/12/04 12:21:29;;;;;;;30.23;18.83;;;;;;;3.34;90.77;99504.31;2276175;78;20926;-83
2022/12/04 12:24:29;;;;;;;31.37;19.13;;;;;;;3.27;90.48;99519.00;2276206;78;20938;-85
2022/12/04 12:27:30;;;;;;;36.37;19.97;;;;;;;3.26;90.66;99518.92;2276559;78;20871;-83
2022/12/04 12:30:30;;;;;;;33.83;18.90;;;;;;;3.26;90.86;99513.36;2276444;78;20939;-83
2022/12/04 12:33:31;;;;;;;33.50;20.17;;;;;;;3.30;90.78;99516.58;2276689;78;20902;-81
2022/12/04 12:36:31;;;;;;;31.43;18.37;;;;;;;3.30;90.69;99513.11;2276595;78;20950;-83
2022/12/04 12:39:31;;;;;;;33.90;19.53;;;;;;;3.23;90.51;99507.16;2276369;78;21223;-83
2022/12/04 12:42:32;;;;;;;34.67;20.53;;;;;;;3.19;90.90;99512.56;2276331;78;20957;-82
2022/12/04 12:45:32;;;;;;;33.47;18.17;;;;;;;3.17;90.95;99512.89;2276351;78;21009;-82
2022/12/04 12:48:32;;;;;;;33.80;19.47;;;;;;;3.12;91.02;99520.39;2276502;78;21322;-82
2022/12/04 12:51:33;;;;;;;36.00;20.63;;;;;;;3.06;91.05;99515.31;2276557;78;20906;-83
2022/12/04 12:54:33;;;;;;;31.50;19.50;;;;;;;3.00;91.30;99495.66;2276468;78;21256;-82
2022/12/04 12:57:34;;;;;;;29.57;17.90;;;;;;;2.97;91.23;99506.70;2276265;78;20943;-82
2022/12/04 13:00:34;;;;;;;33.40;19.53;;;;;;;2.92;91.57;99505.98;2276704;78;20875;-82
2022/12/04 13:03:34;;;;;;;34.97;19.70;;;;;;;2.90;91.61;99509.77;2276109;78;20962;-84
2022/12/04 13:06:35;;;;;;;30.47;19.73;;;;;;;2.91;91.64;99510.25;2275340;78;21029;-83
2022/12/04 13:09:35;;;;;;;31.27;19.47;;;;;;;2.90;91.68;99512.34;2279616;78;20882;-82
2022/12/04 13:12:36;;;;;;;37.07;20.87;;;;;;;2.88;91.85;99515.25;2279823;78;21093;-83
2022/12/04 13:15:36;;;;;;;36.60;19.40;;;;;;;2.86;91.96;99523.30;2279692;78;21009;-83
2022/12/04 13:18:37;;;;;;;34.87;19.77;;;;;;;2.87;91.64;99523.38;2279891;78;20907;-83
2022/12/04 13:21:37;;;;;;;31.90;19.77;;;;;;;2.85;91.81;99520.23;2280146;78;20895;-81
2022/12/04 13:24:37;;;;;;;36.27;19.23;;;;;;;2.82;91.86;99514.52;2280227;78;20902;-83
2022/12/04 13:27:38;;;;;;;36.17;21.37;;;;;;;2.80;91.85;99515.24;2280370;78;20930;-84
2022/12/04 13:30:38;;;;;;;36.00;21.57;;;;;;;2.79;91.90;99521.20;2280123;78;20946;-83
2022/12/04 13:33:39;;;;;;;34.00;21.13;;;;;;;2.77;91.95;99522.81;2280650;78;20935;-83
2022/12/04 13:36:39;;;;;;;36.53;21.73;;;;;;;2.77;92.08;99523.70;2280727;78;21235;-83
2022/12/04 13:39:39;;;;;;;33.70;19.90;;;;;;;2.75;91.88;99522.73;2280792;78;20903;-83
2022/12/04 13:42:40;;;;;;;38.67;21.77;;;;;;;2.72;92.18;99533.28;2280962;78;20958;-82
2022/12/04 13:45:40;;;;;;;35.80;21.33;;;;;;;2.69;92.24;99518.54;2280236;78;20989;-83
2022/12/04 13:48:41;;;;;;;36.90;21.77;;;;;;;2.58;92.39;99517.05;2279995;78;20914;-83
2022/12/04 13:51:41;;;;;;;33.97;20.17;;;;;;;2.56;92.62;99513.50;2280247;78;20934;-82
2022/12/04 13:54:41;;;;;;;42.27;23.17;;;;;;;2.53;93.03;99512.94;2280392;78;20895;-83
2022/12/04 13:57:42;;;;;;;39.73;22.67;;;;;;;2.53;93.03;99512.94;2280435;78;21323;-83
2022/12/04 14:00:44;;;;;;;38.00;22.37;;;;;;;2.54;92.86;99506.98;2280445;78;21227;-84
2022/12/04 14:03:45;;;;;;;37.17;21.20;;;;;;;2.46;92.96;99506.97;2280446;78;21053;-84
2022/12/04 14:06:45;;;;;;;38.50;21.60;;;;;;;2.37;92.97;99511.63;2276127;77;20934;-84
2022/12/04 14:09:46;;;;;;;36.97;21.07;;;;;;;2.33;93.34;99512.66;2235216;79;20905;-83